createdAt,value
2019-02-22T05:03:57.799Z,7.28
2019-02-22T05:04:57.798Z,7.31
2019-02-22T05:06:57.765Z,7.21
2019-02-22T05:07:57.755Z,7.24
2019-02-22T05:08:57.744Z,7.19
2019-02-22T05:09:57.739Z,7.22
2019-02-22T05:10:57.723Z,7.24
2019-02-22T05:12:10.062Z,7.19
2019-02-22T05:13:22.178Z,7.08
2019-02-22T05:14:22.169Z,7.11
2019-02-22T05:15:22.161Z,7.13
2019-02-22T05:20:22.100Z,6.99
2019-02-22T05:21:22.089Z,6.88
2019-02-22T05:22:22.077Z,6.85
2019-02-22T05:23:22.064Z,6.81
2019-02-22T05:24:22.060Z,6.80
2019-02-22T05:25:22.045Z,6.82
2019-02-22T05:26:22.033Z,6.78
2019-02-22T05:27:22.020Z,6.82
2019-02-22T05:28:22.011Z,6.80
2019-02-22T05:29:22.002Z,6.73
2019-02-22T05:30:21.987Z,6.80
2019-02-22T05:31:21.978Z,6.69
2019-02-22T05:32:21.967Z,6.69
2019-02-22T05:33:21.958Z,6.62
2019-02-22T05:34:21.940Z,6.72
2019-02-22T05:35:21.936Z,6.60
2019-02-22T05:36:21.919Z,6.60
2019-02-22T05:37:21.906Z,6.67
2019-02-22T05:38:21.894Z,6.55
2019-02-22T05:39:21.895Z,6.51
2019-02-22T05:40:21.918Z,6.54
2019-02-22T05:41:21.861Z,6.49
2019-02-22T05:42:23.289Z,6.36
2019-02-22T05:46:21.803Z,6.46
2019-02-22T05:47:21.795Z,6.55
2019-02-22T05:48:21.785Z,6.51
2019-02-22T05:49:22.548Z,6.60
2019-02-22T05:50:21.759Z,6.48
2019-02-22T05:51:21.748Z,6.39
2019-02-22T05:52:21.737Z,6.39
2019-02-22T05:53:21.725Z,6.37
2019-02-22T05:54:21.713Z,6.30
2019-02-22T05:55:21.701Z,6.39
2019-02-22T05:56:21.693Z,6.44
2019-02-22T05:57:21.676Z,6.27
2019-02-22T05:58:21.665Z,6.34
2019-02-22T05:59:21.657Z,6.36
2019-02-22T06:00:21.679Z,6.41
2019-02-22T06:01:21.637Z,6.23
2019-02-22T06:02:21.621Z,6.34
2019-02-22T06:03:21.611Z,6.34
2019-02-22T06:04:21.609Z,6.33
2019-02-22T06:05:21.587Z,6.37
2019-02-22T06:06:21.576Z,6.36
2019-02-22T06:07:21.573Z,6.39
2019-02-22T06:08:21.556Z,6.30
2019-02-22T06:09:21.544Z,6.31
2019-02-22T06:10:21.531Z,6.24
2019-02-22T06:11:21.517Z,6.19
2019-02-22T06:12:21.505Z,6.21
2019-02-22T06:13:21.494Z,6.24
2019-02-22T06:14:21.482Z,6.23
2019-02-22T06:15:21.474Z,6.26
2019-02-22T06:16:21.462Z,6.15
2019-02-22T06:17:21.456Z,6.15
2019-02-22T06:18:23.165Z,6.15
2019-02-22T06:19:21.438Z,6.18
2019-02-22T06:20:21.419Z,6.21
2019-02-22T06:21:21.410Z,6.26
2019-02-22T06:22:29.581Z,6.16
2019-02-22T06:23:45.914Z,6.03
2019-02-22T06:24:45.901Z,6.00
2019-02-22T06:25:45.890Z,6.03
2019-02-22T06:26:45.881Z,6.05
2019-02-22T06:27:45.865Z,6.12
2019-02-22T06:28:45.854Z,6.05
2019-02-22T06:29:45.842Z,6.11
2019-02-22T06:30:45.831Z,6.05
2019-02-22T06:31:45.827Z,6.09
2019-02-22T06:32:45.815Z,6.09
2019-02-22T06:33:45.796Z,6.21
2019-02-22T06:34:45.803Z,6.08
2019-02-22T06:35:45.777Z,6.05
2019-02-22T06:36:45.769Z,6.02
2019-02-22T06:37:45.751Z,5.84
2019-02-22T06:38:46.793Z,5.97
2019-02-22T06:39:45.741Z,5.85
2019-02-22T06:40:48.010Z,5.87
2019-02-22T06:41:45.704Z,5.90
2019-02-22T06:42:46.354Z,5.85
2019-02-22T06:43:45.686Z,5.90
2019-02-22T06:44:45.670Z,5.80
2019-02-22T06:45:45.661Z,5.75
2019-02-22T06:46:45.646Z,5.67
2019-02-22T06:47:45.636Z,5.55
2019-02-22T06:48:45.624Z,5.47
2019-02-22T06:49:45.629Z,5.54
2019-02-22T06:50:45.608Z,5.50
2019-02-22T06:51:45.609Z,5.55
2019-02-22T06:52:45.621Z,5.66
2019-02-22T06:53:45.624Z,5.49
2019-02-22T06:54:45.556Z,5.65
2019-02-22T06:55:45.561Z,5.55
2019-02-22T06:56:45.568Z,5.49
2019-02-22T06:57:45.567Z,5.52
2019-02-22T06:58:45.511Z,5.52
2019-02-22T06:59:45.499Z,5.49
2019-02-22T07:00:45.487Z,5.57
2019-02-22T07:01:45.484Z,5.47
2019-02-22T07:02:45.477Z,5.50
2019-02-22T07:03:45.453Z,5.55
2019-02-22T07:04:45.443Z,5.40
2019-02-22T07:05:45.430Z,5.46
2019-02-22T07:06:45.419Z,5.46
2019-02-22T07:07:45.412Z,5.52
2019-02-22T07:08:45.400Z,5.47
2019-02-22T07:09:45.386Z,5.43
2019-02-22T07:10:45.382Z,5.39
2019-02-22T07:11:45.369Z,5.47
2019-02-22T07:12:56.174Z,5.43
2019-02-22T07:14:09.822Z,5.33
2019-02-22T07:15:09.813Z,5.32
2019-02-22T07:16:09.798Z,5.38
2019-02-22T07:17:09.789Z,5.18
2019-02-22T07:18:09.776Z,5.17
2019-02-22T07:19:09.763Z,5.00
2019-02-22T07:20:09.765Z,5.08
2019-02-22T07:21:09.743Z,5.05
2019-02-22T07:22:09.731Z,5.13
2019-02-22T07:23:09.722Z,5.11
2019-02-22T07:25:09.702Z,5.10
2019-02-22T07:26:09.686Z,5.10
2019-02-22T07:27:09.677Z,5.03
2019-02-22T07:29:09.652Z,4.99
2019-02-22T07:30:09.647Z,5.03
2019-02-22T07:31:09.631Z,5.00
2019-02-22T07:32:09.619Z,4.90
2019-02-22T07:33:09.609Z,5.02
2019-02-22T07:34:09.601Z,5.20
2019-02-22T07:35:09.998Z,6.11
2019-02-22T07:36:09.573Z,6.74
2019-02-22T07:37:09.563Z,7.34
2019-02-22T07:38:09.555Z,7.61
2019-02-22T07:39:09.545Z,7.87
2019-02-22T07:40:09.531Z,7.75
2019-02-22T07:41:09.522Z,6.99
2019-02-22T07:42:09.507Z,6.41
2019-02-22T07:43:09.497Z,6.02
2019-02-22T07:44:09.491Z,5.76
2019-02-22T07:45:09.473Z,5.72
2019-02-22T07:46:09.461Z,5.50
2019-02-22T07:47:09.454Z,5.32
2019-02-22T07:48:09.440Z,5.33
2019-02-22T07:49:09.430Z,5.35
2019-02-22T07:50:09.417Z,5.26
2019-02-22T07:51:09.405Z,5.23
2019-02-22T07:52:09.466Z,5.17
2019-02-22T07:53:09.386Z,5.18
2019-02-22T07:54:09.372Z,5.15
2019-02-22T07:55:09.359Z,5.11
2019-02-22T07:56:09.357Z,5.02
2019-02-22T07:57:09.337Z,5.03
2019-02-22T07:58:09.326Z,5.05
2019-02-22T07:59:09.315Z,5.06
2019-02-22T08:01:09.291Z,4.92
2019-02-22T08:04:09.261Z,4.87
2019-02-22T08:05:09.375Z,4.75
2019-02-22T08:07:09.228Z,4.81
2019-02-22T08:08:09.216Z,4.75
2019-02-22T08:09:09.209Z,4.69
2019-02-22T08:10:09.192Z,4.67
2019-02-22T08:11:09.183Z,4.67
2019-02-22T08:12:09.176Z,4.71
2019-02-22T08:13:19.281Z,4.79
2019-02-22T08:14:33.635Z,4.81
2019-02-22T08:15:35.352Z,4.87
2019-02-22T08:16:33.610Z,4.82
2019-02-22T08:17:33.597Z,4.99
2019-02-22T08:18:33.587Z,4.99
2019-02-22T08:19:33.578Z,5.02
2019-02-22T08:20:33.564Z,5.00
2019-02-22T08:21:33.555Z,5.06
2019-02-22T08:22:33.544Z,5.18
2019-02-22T08:23:33.536Z,5.11
2019-02-22T08:24:34.718Z,5.00
2019-02-22T08:25:33.509Z,5.11
2019-02-22T08:26:33.499Z,5.10
2019-02-22T08:27:33.483Z,5.15
2019-02-22T08:28:33.475Z,5.10
2019-02-22T08:29:33.668Z,5.13
2019-02-22T08:30:33.454Z,5.14
2019-02-22T08:31:33.447Z,5.20
2019-02-22T08:32:33.428Z,5.17
2019-02-22T08:33:33.428Z,5.11
2019-02-22T08:34:33.405Z,5.11
2019-02-22T08:35:33.397Z,5.05
2019-02-22T08:36:33.387Z,5.08
2019-02-22T08:37:33.399Z,5.05
2019-02-22T08:38:33.361Z,5.05
2019-02-22T08:39:33.351Z,4.96
2019-02-22T08:40:33.351Z,5.05
2019-02-22T08:41:33.336Z,5.13
2019-02-22T08:42:33.318Z,5.05
2019-02-22T08:43:33.312Z,5.15
2019-02-22T08:44:33.295Z,5.15
2019-02-22T08:45:33.286Z,5.33
2019-02-22T08:46:33.275Z,5.39
2019-02-22T08:47:33.260Z,5.36
2019-02-22T08:48:33.249Z,5.32
2019-02-22T08:49:33.239Z,5.46
2019-02-22T08:50:33.226Z,5.47
2019-02-22T08:52:33.206Z,5.18
2019-02-22T08:53:33.193Z,5.18
2019-02-22T08:54:33.182Z,5.20
2019-02-22T08:55:33.171Z,5.24
2019-02-22T08:56:33.162Z,5.32
2019-02-22T08:57:33.151Z,5.32
2019-02-22T08:58:33.141Z,5.46
2019-02-22T08:59:33.125Z,5.70
2019-02-22T09:00:33.115Z,6.05
2019-02-22T09:01:35.569Z,6.34
2019-02-22T09:02:33.100Z,6.73
2019-02-22T09:03:33.092Z,7.49
2019-02-22T09:04:33.069Z,8.68
2019-02-22T09:05:33.058Z,9.50
2019-02-22T09:06:33.050Z,10.20
2019-02-22T09:07:33.040Z,10.27
2019-02-22T09:08:33.026Z,10.60
2019-02-22T09:09:33.031Z,10.61
2019-02-22T09:10:33.001Z,10.20
2019-02-22T09:11:32.990Z,9.39
2019-02-22T09:12:32.985Z,10.18
2019-02-22T09:13:43.149Z,10.39
2019-02-22T09:14:57.441Z,10.71
2019-02-22T09:15:57.431Z,11.14
2019-02-22T09:16:57.428Z,11.19
2019-02-22T09:17:57.408Z,11.61
2019-02-22T09:18:57.406Z,11.61
2019-02-22T09:19:57.400Z,12.09
2019-02-22T09:20:57.380Z,12.29
2019-02-22T09:21:57.371Z,12.16
2019-02-22T09:22:57.350Z,12.09
2019-02-22T09:23:57.340Z,12.02
2019-02-22T09:24:57.330Z,12.32
2019-02-22T09:25:57.325Z,12.63
2019-02-22T09:26:57.306Z,12.76
2019-02-22T09:27:57.295Z,12.91
2019-02-22T09:28:57.290Z,12.91
2019-02-22T09:29:59.098Z,12.87
2019-02-22T09:30:57.263Z,12.86
2019-02-22T09:31:57.253Z,12.90
2019-02-22T09:32:57.241Z,12.98
2019-02-22T09:33:57.229Z,13.54
2019-02-22T09:34:57.219Z,13.50
2019-02-22T09:36:57.195Z,13.16
2019-02-22T09:37:57.187Z,13.48
2019-02-22T09:38:57.181Z,13.50
2019-02-22T09:39:57.166Z,13.79
2019-02-22T09:40:57.153Z,13.74
2019-02-22T09:41:57.144Z,14.09
2019-02-22T09:42:57.130Z,14.84
2019-02-22T09:43:57.121Z,14.88
2019-02-22T09:44:57.112Z,14.64
2019-02-22T09:45:57.098Z,14.66
2019-02-22T09:46:57.094Z,14.78
2019-02-22T09:47:57.073Z,14.38
2019-02-22T09:48:57.070Z,14.23
2019-02-22T09:49:57.051Z,14.16
2019-02-22T09:50:57.048Z,14.04
2019-02-22T09:51:57.029Z,14.12
2019-02-22T09:52:57.016Z,14.40
2019-02-22T09:53:57.011Z,14.52
2019-02-22T09:54:56.995Z,14.53
2019-02-22T09:55:56.982Z,14.67
2019-02-22T09:56:56.972Z,15.24
2019-02-22T09:57:56.964Z,15.62
2019-02-22T09:58:56.958Z,15.70
2019-02-22T09:59:56.940Z,15.76
2019-02-22T10:00:56.932Z,15.62
2019-02-22T10:01:56.915Z,15.42
2019-02-22T10:02:56.916Z,16.33
2019-02-22T10:03:56.897Z,16.81
2019-02-22T10:04:56.882Z,16.76
2019-02-22T10:05:56.877Z,16.68
2019-02-22T10:06:56.864Z,16.51
2019-02-22T10:07:56.848Z,16.64
2019-02-22T10:08:56.836Z,16.75
2019-02-22T10:09:56.832Z,16.51
2019-02-22T10:10:56.818Z,15.99
2019-02-22T10:11:56.808Z,15.85
2019-02-22T10:12:56.796Z,16.21
2019-02-22T10:14:06.259Z,16.16
2019-02-22T10:15:21.296Z,16.06
2019-02-22T10:16:21.243Z,16.08
2019-02-22T10:17:21.238Z,16.18
2019-02-22T10:18:21.244Z,16.24
2019-02-22T10:19:21.246Z,16.17
2019-02-22T10:20:21.252Z,16.41
2019-02-22T10:21:21.186Z,16.48
2019-02-22T10:22:21.172Z,16.31
2019-02-22T10:23:21.162Z,16.13
2019-02-22T10:24:21.149Z,15.93
2019-02-22T10:25:21.139Z,15.70
2019-02-22T10:26:21.547Z,15.81
2019-02-22T10:27:21.120Z,16.14
2019-02-22T10:28:21.105Z,15.91
2019-02-22T10:29:21.098Z,16.16
2019-02-22T10:30:21.091Z,16.13
2019-02-22T10:31:21.079Z,15.98
2019-02-22T10:32:21.067Z,15.81
2019-02-22T10:33:21.050Z,15.80
2019-02-22T10:34:21.036Z,15.80
2019-02-22T10:35:21.026Z,16.14
2019-02-22T10:36:21.018Z,16.25
2019-02-22T10:37:21.004Z,16.54
2019-02-22T10:38:21.001Z,16.43
2019-02-22T10:39:20.985Z,16.32
2019-02-22T10:40:20.980Z,16.45
2019-02-22T10:41:20.969Z,16.38
2019-02-22T10:42:20.950Z,16.56
2019-02-22T10:43:20.939Z,16.81
2019-02-22T10:44:20.926Z,16.61
2019-02-22T10:45:20.915Z,16.81
2019-02-22T10:46:22.211Z,17.14
2019-02-22T10:47:20.893Z,17.31
2019-02-22T10:48:20.883Z,17.41
2019-02-22T10:49:20.870Z,17.65
2019-02-22T10:50:20.872Z,17.67
2019-02-22T10:51:20.854Z,17.35
2019-02-22T10:52:20.836Z,17.28
2019-02-22T10:53:20.835Z,16.82
2019-02-22T10:54:20.812Z,17.13
2019-02-22T10:55:20.802Z,17.28
2019-02-22T10:56:20.794Z,17.83
2019-02-22T10:57:20.783Z,17.72
2019-02-22T10:58:20.767Z,17.75
2019-02-22T10:59:20.760Z,17.68
2019-02-22T11:00:20.765Z,17.37
2019-02-22T11:01:20.740Z,17.25
2019-02-22T11:02:20.726Z,17.06
2019-02-22T11:03:20.713Z,17.20
2019-02-22T11:04:20.701Z,17.75
2019-02-22T11:05:20.696Z,17.77
2019-02-22T11:06:20.710Z,17.71
2019-02-22T11:07:20.669Z,17.77
2019-02-22T11:08:20.660Z,17.78
2019-02-22T11:09:20.646Z,18.36
2019-02-22T11:10:20.641Z,18.97
2019-02-22T11:11:20.628Z,18.98
2019-02-22T11:12:20.614Z,18.52
2019-02-22T11:13:21.400Z,18.27
2019-02-22T11:14:28.903Z,18.33
2019-02-22T11:15:45.056Z,18.19
2019-02-22T11:16:45.045Z,17.77
2019-02-22T11:17:45.036Z,17.24
2019-02-22T11:18:45.025Z,16.97
2019-02-22T11:19:45.014Z,16.64
2019-02-22T11:20:45.005Z,16.94
2019-02-22T11:21:44.989Z,17.17
2019-02-22T11:22:44.980Z,17.31
2019-02-22T11:23:44.967Z,18.11
2019-02-22T11:24:44.958Z,17.86
2019-02-22T11:25:44.944Z,18.19
2019-02-22T11:26:44.934Z,18.60
2019-02-22T11:27:44.928Z,18.79
2019-02-22T11:28:44.912Z,18.81
2019-02-22T11:29:44.906Z,18.64
2019-02-22T11:30:44.896Z,19.18
2019-02-22T11:31:44.879Z,19.67
2019-02-22T11:32:44.885Z,19.73
2019-02-22T11:33:44.861Z,19.23
2019-02-22T11:34:44.847Z,18.88
2019-02-22T11:35:44.835Z,18.17
2019-02-22T11:36:44.824Z,18.16
2019-02-22T11:37:44.813Z,18.56
2019-02-22T11:38:44.802Z,18.60
2019-02-22T11:39:44.794Z,19.26
2019-02-22T11:40:44.787Z,19.55
2019-02-22T11:41:44.774Z,19.12
2019-02-22T11:42:44.759Z,18.61
2019-02-22T11:43:44.753Z,17.93
2019-02-22T11:44:44.741Z,18.00
2019-02-22T11:45:44.729Z,18.41
2019-02-22T11:46:44.729Z,17.74
2019-02-22T11:47:44.705Z,17.65
2019-02-22T11:48:44.704Z,17.67
2019-02-22T11:49:44.683Z,17.54
2019-02-22T11:50:44.677Z,17.47
2019-02-22T11:51:44.662Z,17.72
2019-02-22T11:52:44.651Z,17.47
2019-02-22T11:53:44.641Z,17.02
2019-02-22T11:54:44.629Z,16.86
2019-02-22T11:55:44.615Z,16.86
2019-02-22T11:56:44.604Z,17.10
2019-02-22T11:57:44.602Z,16.90
2019-02-22T11:58:44.584Z,16.79
2019-02-22T11:59:44.588Z,17.01
2019-02-22T12:00:44.563Z,17.16
2019-02-22T12:01:44.751Z,17.34
2019-02-22T12:02:45.397Z,17.46
2019-02-22T12:03:44.532Z,17.49
2019-02-22T12:04:44.518Z,16.66
2019-02-22T12:05:44.506Z,15.37
2019-02-22T12:06:44.504Z,14.15
2019-02-22T12:07:44.491Z,14.13
2019-02-22T12:08:44.477Z,14.66
2019-02-22T12:09:44.469Z,15.10
2019-02-22T12:10:44.454Z,15.48
2019-02-22T12:11:44.441Z,16.06
2019-02-22T12:12:44.428Z,16.56
2019-02-22T12:13:44.421Z,16.46
2019-02-22T12:14:51.511Z,16.54
2019-02-22T12:16:08.876Z,16.81
2019-02-22T12:17:08.862Z,16.79
2019-02-22T12:18:08.859Z,16.64
2019-02-22T12:19:08.840Z,16.82
2019-02-22T12:20:08.828Z,16.78
2019-02-22T12:21:08.818Z,16.86
2019-02-22T12:22:08.816Z,17.34
2019-02-22T12:23:08.793Z,17.50
2019-02-22T12:24:08.784Z,17.68
2019-02-22T12:25:08.774Z,17.92
2019-02-22T12:26:08.762Z,17.93
2019-02-22T12:27:08.750Z,18.00
2019-02-22T12:28:08.738Z,17.87
2019-02-22T12:29:08.727Z,17.41
2019-02-22T12:30:08.719Z,17.34
2019-02-22T12:31:08.707Z,17.30
2019-02-22T12:32:08.693Z,17.32
2019-02-22T12:33:08.686Z,17.71
2019-02-22T12:34:08.670Z,18.07
2019-02-22T12:35:08.667Z,18.43
2019-02-22T12:36:09.588Z,18.04
2019-02-22T12:37:08.640Z,17.71
2019-02-22T12:38:08.658Z,16.95
2019-02-22T12:39:08.615Z,16.68
2019-02-22T12:40:08.612Z,16.66
2019-02-22T12:41:08.594Z,16.61
2019-02-22T12:42:08.581Z,16.48
2019-02-22T12:43:08.572Z,16.45
2019-02-22T12:44:08.569Z,16.28
2019-02-22T12:45:08.548Z,16.75
2019-02-22T12:46:08.558Z,16.87
2019-02-22T12:47:08.525Z,17.32
2019-02-22T12:48:08.513Z,17.10
2019-02-22T12:49:08.504Z,16.66
2019-02-22T12:50:08.490Z,17.24
2019-02-22T12:51:08.483Z,17.01
2019-02-22T12:52:08.466Z,17.04
2019-02-22T12:53:08.533Z,16.97
2019-02-22T12:54:08.444Z,16.58
2019-02-22T12:55:08.441Z,16.90
2019-02-22T12:56:08.421Z,16.97
2019-02-22T12:57:08.411Z,17.07
2019-02-22T12:58:08.407Z,17.46
2019-02-22T12:59:08.396Z,18.11
2019-02-22T13:00:08.377Z,18.26
2019-02-22T13:01:08.375Z,17.86
2019-02-22T13:02:08.354Z,17.37
2019-02-22T13:03:08.342Z,17.47
2019-02-22T13:04:08.334Z,17.50
2019-02-22T13:05:08.317Z,17.37
2019-02-22T13:06:08.309Z,16.36
2019-02-22T13:07:08.300Z,15.72
2019-02-22T13:08:08.287Z,16.06
2019-02-22T13:09:08.280Z,16.33
2019-02-22T13:10:08.262Z,16.71
2019-02-22T13:11:08.253Z,16.45
2019-02-22T13:12:14.144Z,16.24
2019-02-22T13:13:32.715Z,16.23
2019-02-22T13:14:32.702Z,16.10
2019-02-22T13:15:32.690Z,16.06
2019-02-22T13:16:32.676Z,15.73
2019-02-22T13:17:32.696Z,15.72
2019-02-22T13:18:32.650Z,15.48
2019-02-22T13:19:32.643Z,15.50
2019-02-22T13:20:32.635Z,15.32
2019-02-22T13:21:32.620Z,14.95
2019-02-22T13:22:32.611Z,15.00
2019-02-22T13:23:32.593Z,14.98
2019-02-22T13:24:32.584Z,15.06
2019-02-22T13:25:32.573Z,14.91
2019-02-22T13:26:32.564Z,15.19
2019-02-22T13:27:32.550Z,14.98
2019-02-22T13:28:32.542Z,14.64
2019-02-22T13:29:32.528Z,14.26
2019-02-22T13:30:32.513Z,14.09
2019-02-22T13:31:32.510Z,14.26
2019-02-22T13:32:32.492Z,14.36
2019-02-22T13:33:32.479Z,14.51
2019-02-22T13:34:32.472Z,14.33
2019-02-22T13:35:32.461Z,13.84
2019-02-22T13:36:32.446Z,13.75
2019-02-22T13:37:32.438Z,13.62
2019-02-22T13:38:32.423Z,13.38
2019-02-22T13:39:32.413Z,13.42
2019-02-22T13:40:32.404Z,13.19
2019-02-22T13:41:32.391Z,13.17
2019-02-22T13:42:32.379Z,13.35
2019-02-22T13:43:32.366Z,13.46
2019-02-22T13:44:32.355Z,13.45
2019-02-22T13:45:32.348Z,13.14
2019-02-22T13:46:32.342Z,12.80
2019-02-22T13:47:32.321Z,12.69
2019-02-22T13:48:32.309Z,12.63
2019-02-22T13:49:32.298Z,12.68
2019-02-22T13:50:32.310Z,12.60
2019-02-22T13:51:34.020Z,12.84
2019-02-22T13:52:32.279Z,12.72
2019-02-22T13:53:32.253Z,12.63
2019-02-22T13:54:32.244Z,12.58
2019-02-22T13:55:32.233Z,12.43
2019-02-22T13:56:32.227Z,12.61
2019-02-22T13:57:32.217Z,12.47
2019-02-22T13:58:32.273Z,12.06
2019-02-22T13:59:32.186Z,11.91
2019-02-22T14:00:32.175Z,11.77
2019-02-22T14:01:32.163Z,11.67
2019-02-22T14:02:32.151Z,11.49
2019-02-22T14:03:32.142Z,11.34
2019-02-22T14:04:32.129Z,11.45
2019-02-22T14:05:32.118Z,11.33
2019-02-22T14:06:32.113Z,11.31
2019-02-22T14:07:32.099Z,11.30
2019-02-22T14:08:32.093Z,11.52
2019-02-22T14:09:32.093Z,11.59
2019-02-22T14:10:32.087Z,11.28
2019-02-22T14:11:32.101Z,11.38
2019-02-22T14:12:32.045Z,11.37
2019-02-22T14:13:32.040Z,11.37
2019-02-22T14:15:37.857Z,11.08
2019-02-22T14:16:56.476Z,11.14
2019-02-22T14:17:56.467Z,10.94
2019-02-22T14:18:56.455Z,10.77
2019-02-22T14:19:56.442Z,10.72
2019-02-22T14:20:56.432Z,10.48
2019-02-22T14:21:56.421Z,10.39
2019-02-22T14:22:56.410Z,10.31
2019-02-22T14:23:56.404Z,10.17
2019-02-22T14:24:56.393Z,10.08
2019-02-22T14:25:56.378Z,9.94
2019-02-22T14:26:56.374Z,9.74
2019-02-22T14:27:56.353Z,9.53
2019-02-22T14:28:56.344Z,9.43
2019-02-22T14:29:56.339Z,9.25
2019-02-22T14:30:56.322Z,9.17
2019-02-22T14:31:56.310Z,9.10
2019-02-22T14:32:56.296Z,9.21
2019-02-22T14:33:56.285Z,9.33
2019-02-22T14:34:56.278Z,9.51
2019-02-22T14:35:56.263Z,9.41
2019-02-22T14:36:56.284Z,9.25
2019-02-22T14:37:56.241Z,9.31
2019-02-22T14:38:56.250Z,9.25
2019-02-22T14:40:03.063Z,9.15
2019-02-22T14:41:20.685Z,9.15
2019-02-22T14:42:20.680Z,9.10
2019-02-22T14:43:20.665Z,9.18
2019-02-22T14:44:20.653Z,9.18
2019-02-22T14:45:20.651Z,9.07
2019-02-22T14:46:25.940Z,9.03
2019-02-22T14:47:20.622Z,8.90
2019-02-22T14:48:20.609Z,8.92
2019-02-22T14:49:20.596Z,8.81
2019-02-22T14:50:23.125Z,8.88
2019-02-22T14:51:20.573Z,8.92
2019-02-22T14:52:20.561Z,8.88
2019-02-22T14:53:20.558Z,8.88
2019-02-22T14:54:20.539Z,9.13
2019-02-22T14:55:20.530Z,9.11
2019-02-22T14:56:20.514Z,9.03
2019-02-22T14:57:20.509Z,8.92
2019-02-22T14:58:20.493Z,8.86
2019-02-22T14:59:20.479Z,8.92
2019-02-22T15:00:20.467Z,8.95
2019-02-22T15:01:20.456Z,8.95
2019-02-22T15:02:20.453Z,8.89
2019-02-22T15:03:20.433Z,8.93
2019-02-22T15:04:20.429Z,9.01
2019-02-22T15:05:20.409Z,9.15
2019-02-22T15:06:20.396Z,9.15
2019-02-22T15:07:20.385Z,9.04
2019-02-22T15:08:20.389Z,8.60
2019-02-22T15:09:20.370Z,8.38
2019-02-22T15:10:20.352Z,8.28
2019-02-22T15:11:20.348Z,8.34
2019-02-22T15:12:20.331Z,8.47
2019-02-22T15:13:20.323Z,8.47
2019-02-22T15:14:20.308Z,8.41
2019-02-22T15:15:20.303Z,8.34
2019-02-22T15:16:20.286Z,8.23
2019-02-22T15:17:20.277Z,8.22
2019-02-22T15:18:20.272Z,8.27
2019-02-22T15:19:22.102Z,8.23
2019-02-22T15:20:20.251Z,8.15
2019-02-22T15:21:20.235Z,8.23
2019-02-22T15:22:20.218Z,8.15
2019-02-22T15:23:20.207Z,8.16
2019-02-22T15:24:20.199Z,8.15
2019-02-22T15:25:20.184Z,8.20
2019-02-22T15:26:20.172Z,8.30
2019-02-22T15:27:20.170Z,8.16
2019-02-22T15:28:20.152Z,7.94
2019-02-22T15:29:20.143Z,7.75
2019-02-22T15:30:20.200Z,7.61
2019-02-22T15:31:20.125Z,7.75
2019-02-22T15:32:20.113Z,7.65
2019-02-22T15:33:20.301Z,7.82
2019-02-22T15:34:20.089Z,7.94
2019-02-22T15:35:20.087Z,7.94
2019-02-22T15:36:20.077Z,7.85
2019-02-22T15:37:20.097Z,7.76
2019-02-22T15:38:20.065Z,7.90
2019-02-22T15:39:20.079Z,7.64
2019-02-22T15:40:20.021Z,7.46
2019-02-22T15:41:20.012Z,7.54
2019-02-22T15:42:20.017Z,7.42
2019-02-22T15:43:20.023Z,7.31
2019-02-22T15:44:19.977Z,7.28
2019-02-22T15:45:20.137Z,7.25
2019-02-22T15:46:19.958Z,7.15
2019-02-22T15:47:19.964Z,7.13
2019-02-22T15:48:19.929Z,7.00
2019-02-22T15:49:19.937Z,6.90
2019-02-22T15:50:19.916Z,7.00
2019-02-22T15:51:19.898Z,6.91
2019-02-22T15:52:19.884Z,6.97
2019-02-22T15:53:19.871Z,6.87
2019-02-22T15:54:19.858Z,6.78
2019-02-22T15:55:19.850Z,6.67
2019-02-22T15:56:19.837Z,6.70
2019-02-22T15:57:19.825Z,6.69
2019-02-22T15:58:19.819Z,6.72
2019-02-22T15:59:21.095Z,6.66
2019-02-22T16:00:19.797Z,6.66
2019-02-22T16:01:19.782Z,6.63
2019-02-22T16:02:19.773Z,6.66
2019-02-22T16:03:19.756Z,6.55
2019-02-22T16:04:19.746Z,6.72
2019-02-22T16:05:19.746Z,6.64
2019-02-22T16:06:19.722Z,6.70
2019-02-22T16:07:19.710Z,6.81
2019-02-22T16:08:19.699Z,6.84
2019-02-22T16:09:19.687Z,6.85
2019-02-22T16:10:19.683Z,6.85
2019-02-22T16:11:19.665Z,6.82
2019-02-22T16:12:19.653Z,7.00
2019-02-22T16:13:19.648Z,6.97
2019-02-22T16:14:19.635Z,6.99
2019-02-22T16:15:19.620Z,6.84
2019-02-22T16:16:23.251Z,6.82
2019-02-22T16:17:19.599Z,6.85
2019-02-22T16:18:19.585Z,6.77
2019-02-22T16:19:19.578Z,6.72
2019-02-22T16:20:19.567Z,6.54
2019-02-22T16:21:19.552Z,6.49
2019-02-22T16:22:19.540Z,6.59
2019-02-22T16:23:19.528Z,6.55
2019-02-22T16:24:19.514Z,6.62
2019-02-22T16:25:20.273Z,6.56
2019-02-22T16:26:19.493Z,6.55
2019-02-22T16:27:19.484Z,6.37
2019-02-22T16:28:19.474Z,6.39
2019-02-22T16:29:19.459Z,6.26
2019-02-22T16:30:19.451Z,6.34
2019-02-22T16:31:19.435Z,6.27
2019-02-22T16:32:19.439Z,6.27
2019-02-22T16:33:19.419Z,6.26
2019-02-22T16:34:19.404Z,6.23
2019-02-22T16:35:19.396Z,6.23
2019-02-22T16:36:19.378Z,6.23
2019-02-22T16:37:19.367Z,6.18
2019-02-22T16:38:19.355Z,6.19
2019-02-22T16:39:19.342Z,6.12
2019-02-22T16:40:19.333Z,6.02
2019-02-22T16:41:19.333Z,6.05
2019-02-22T16:42:19.315Z,5.98
2019-02-22T16:43:19.305Z,5.94
2019-02-22T16:44:19.290Z,5.87
2019-02-22T16:45:19.286Z,5.79
2019-02-22T16:46:19.264Z,5.73
2019-02-22T16:47:19.253Z,5.79
2019-02-22T16:48:19.245Z,5.79
2019-02-22T16:49:19.229Z,5.76
2019-02-22T16:50:19.218Z,5.73
2019-02-22T16:51:19.210Z,5.76
2019-02-22T16:52:19.198Z,5.77
2019-02-22T16:53:19.184Z,5.72
2019-02-22T16:54:19.182Z,5.79
2019-02-22T16:55:19.161Z,5.75
2019-02-22T16:56:19.149Z,5.76
2019-02-22T16:57:19.142Z,5.77
2019-02-22T16:58:19.129Z,5.75
2019-02-22T16:59:19.115Z,5.70
2019-02-22T17:01:19.094Z,5.77
2019-02-22T17:02:19.080Z,5.73
2019-02-22T17:03:19.073Z,5.79
2019-02-22T17:04:19.063Z,5.76
2019-02-22T17:05:19.050Z,5.75
2019-02-22T17:06:19.042Z,5.65
2019-02-22T17:07:19.025Z,5.62
2019-02-22T17:08:19.014Z,5.49
2019-02-22T17:09:19.004Z,5.43
